sensor_id;sensor_type;location;lat;lon;timestamp;P1;durP1;ratioP1;P2;durP2;ratioP2
5465;SDS011;2755;50.728;7.108;2023-09-07T00:01:24;197.70;;;160.80;;
5465;SDS011;2755;50.728;7.108;2023-09-07T00:03:50;201.73;;;169.20;;
5465;SDS011;2755;50.728;7.108;2023-09-07T00:06:16;198.37;;;161.83;;
5465;SDS011;2755;50.728;7.108;2023-09-07T00:08:41;199.47;;;166.40;;
5465;SDS011;2755;50.728;7.108;2023-09-07T00:11:08;198.90;;;163.27;;
5465;SDS011;2755;50.728;7.108;2023-09-07T00:13:35;196.83;;;159.50;;
5465;SDS011;2755;50.728;7.108;2023-09-07T00:16:01;198.43;;;162.07;;
5465;SDS011;2755;50.728;7.108;2023-09-07T00:18:28;197.00;;;158.60;;
5465;SDS011;2755;50.728;7.108;2023-09-07T00:20:54;194.10;;;156.40;;
5465;SDS011;2755;50.728;7.108;2023-09-07T00:23:20;194.33;;;156.93;;
5465;SDS011;2755;50.728;7.108;2023-09-07T00:25:46;198.10;;;160.43;;
5465;SDS011;2755;50.728;7.108;2023-09-07T00:28:12;200.33;;;161.13;;
5465;SDS011;2755;50.728;7.108;2023-09-07T00:30:38;200.90;;;163.03;;
5465;SDS011;2755;50.728;7.108;2023-09-07T00:33:04;201.40;;;163.13;;
5465;SDS011;2755;50.728;7.108;2023-09-07T00:35:30;199.83;;;160.03;;
5465;SDS011;2755;50.728;7.108;2023-09-07T00:37:56;197.27;;;155.67;;
5465;SDS011;2755;50.728;7.108;2023-09-07T00:40:21;196.47;;;154.63;;
5465;SDS011;2755;50.728;7.108;2023-09-07T00:42:47;194.57;;;153.33;;
5465;SDS011;2755;50.728;7.108;2023-09-07T00:45:13;196.97;;;155.33;;
5465;SDS011;2755;50.728;7.108;2023-09-07T00:47:38;195.67;;;152.00;;
5465;SDS011;2755;50.728;7.108;2023-09-07T00:50:05;197.90;;;155.47;;
5465;SDS011;2755;50.728;7.108;2023-09-07T00:52:31;194.43;;;152.10;;
5465;SDS011;2755;50.728;7.108;2023-09-07T00:54:58;198.33;;;157.40;;
5465;SDS011;2755;50.728;7.108;2023-09-07T00:57:24;190.47;;;148.17;;
5465;SDS011;2755;50.728;7.108;2023-09-07T00:59:50;195.07;;;154.77;;
5465;SDS011;2755;50.728;7.108;2023-09-07T01:02:16;198.17;;;157.93;;
5465;SDS011;2755;50.728;7.108;2023-09-07T01:04:42;193.77;;;151.10;;
5465;SDS011;2755;50.728;7.108;2023-09-07T01:09:43;194.43;;;150.97;;
5465;SDS011;2755;50.728;7.108;2023-09-07T01:12:14;192.63;;;150.40;;
5465;SDS011;2755;50.728;7.108;2023-09-07T01:14:41;191.37;;;149.33;;
5465;SDS011;2755;50.728;7.108;2023-09-07T01:17:07;193.33;;;151.00;;
5465;SDS011;2755;50.728;7.108;2023-09-07T01:19:34;199.27;;;160.83;;
5465;SDS011;2755;50.728;7.108;2023-09-07T01:22:00;196.87;;;156.23;;
5465;SDS011;2755;50.728;7.108;2023-09-07T01:24:28;196.63;;;156.53;;
5465;SDS011;2755;50.728;7.108;2023-09-07T01:26:55;191.67;;;150.00;;
5465;SDS011;2755;50.728;7.108;2023-09-07T01:29:24;197.50;;;157.33;;
5465;SDS011;2755;50.728;7.108;2023-09-07T01:31:51;193.53;;;151.63;;
5465;SDS011;2755;50.728;7.108;2023-09-07T01:34:18;191.90;;;151.87;;
5465;SDS011;2755;50.728;7.108;2023-09-07T01:36:43;187.13;;;142.33;;
5465;SDS011;2755;50.728;7.108;2023-09-07T01:39:09;195.33;;;156.63;;
5465;SDS011;2755;50.728;7.108;2023-09-07T01:41:35;196.70;;;158.17;;
5465;SDS011;2755;50.728;7.108;2023-09-07T01:44:00;197.23;;;158.03;;
5465;SDS011;2755;50.728;7.108;2023-09-07T01:46:26;191.70;;;150.83;;
5465;SDS011;2755;50.728;7.108;2023-09-07T01:48:51;195.57;;;156.27;;
5465;SDS011;2755;50.728;7.108;2023-09-07T01:51:17;197.50;;;160.17;;
5465;SDS011;2755;50.728;7.108;2023-09-07T01:53:42;198.00;;;160.30;;
5465;SDS011;2755;50.728;7.108;2023-09-07T01:56:09;197.73;;;160.57;;
5465;SDS011;2755;50.728;7.108;2023-09-07T01:58:34;198.23;;;159.63;;
5465;SDS011;2755;50.728;7.108;2023-09-07T02:01:01;194.20;;;154.90;;
5465;SDS011;2755;50.728;7.108;2023-09-07T02:03:27;196.23;;;157.67;;
5465;SDS011;2755;50.728;7.108;2023-09-07T02:05:52;194.00;;;154.03;;
5465;SDS011;2755;50.728;7.108;2023-09-07T02:08:19;191.47;;;149.17;;
5465;SDS011;2755;50.728;7.108;2023-09-07T02:10:45;193.00;;;153.70;;
5465;SDS011;2755;50.728;7.108;2023-09-07T02:13:11;192.13;;;152.23;;
5465;SDS011;2755;50.728;7.108;2023-09-07T02:15:37;189.57;;;146.83;;
5465;SDS011;2755;50.728;7.108;2023-09-07T02:18:03;187.90;;;145.23;;
5465;SDS011;2755;50.728;7.108;2023-09-07T02:20:30;190.87;;;152.97;;
5465;SDS011;2755;50.728;7.108;2023-09-07T02:22:56;188.87;;;143.60;;
5465;SDS011;2755;50.728;7.108;2023-09-07T02:25:22;186.50;;;142.80;;
5465;SDS011;2755;50.728;7.108;2023-09-07T02:27:48;187.10;;;144.17;;
5465;SDS011;2755;50.728;7.108;2023-09-07T02:30:13;184.10;;;140.50;;
5465;SDS011;2755;50.728;7.108;2023-09-07T02:32:42;182.53;;;135.73;;
5465;SDS011;2755;50.728;7.108;2023-09-07T02:35:08;177.87;;;129.20;;
5465;SDS011;2755;50.728;7.108;2023-09-07T02:37:35;175.73;;;127.23;;
5465;SDS011;2755;50.728;7.108;2023-09-07T02:40:01;179.93;;;131.70;;
5465;SDS011;2755;50.728;7.108;2023-09-07T02:42:31;177.47;;;130.97;;
5465;SDS011;2755;50.728;7.108;2023-09-07T02:44:57;178.10;;;130.87;;
5465;SDS011;2755;50.728;7.108;2023-09-07T02:47:23;176.77;;;130.20;;
5465;SDS011;2755;50.728;7.108;2023-09-07T02:49:48;178.20;;;132.70;;
5465;SDS011;2755;50.728;7.108;2023-09-07T02:52:14;177.70;;;129.70;;
5465;SDS011;2755;50.728;7.108;2023-09-07T02:54:39;178.63;;;131.30;;
5465;SDS011;2755;50.728;7.108;2023-09-07T02:57:06;182.70;;;137.13;;
5465;SDS011;2755;50.728;7.108;2023-09-07T02:59:32;183.17;;;138.53;;
5465;SDS011;2755;50.728;7.108;2023-09-07T03:01:58;184.87;;;138.27;;
5465;SDS011;2755;50.728;7.108;2023-09-07T03:04:23;182.27;;;134.47;;
5465;SDS011;2755;50.728;7.108;2023-09-07T03:06:49;181.77;;;135.93;;
5465;SDS011;2755;50.728;7.108;2023-09-07T03:09:15;183.00;;;135.80;;
5465;SDS011;2755;50.728;7.108;2023-09-07T03:11:40;180.47;;;134.37;;
5465;SDS011;2755;50.728;7.108;2023-09-07T03:14:06;181.27;;;136.33;;
5465;SDS011;2755;50.728;7.108;2023-09-07T03:16:31;185.67;;;144.30;;
5465;SDS011;2755;50.728;7.108;2023-09-07T03:18:57;183.07;;;140.37;;
5465;SDS011;2755;50.728;7.108;2023-09-07T03:21:23;181.27;;;134.77;;
5465;SDS011;2755;50.728;7.108;2023-09-07T03:23:54;181.40;;;135.57;;
5465;SDS011;2755;50.728;7.108;2023-09-07T03:26:25;180.77;;;133.10;;
5465;SDS011;2755;50.728;7.108;2023-09-07T03:28:51;178.00;;;129.80;;
5465;SDS011;2755;50.728;7.108;2023-09-07T03:31:20;185.03;;;139.47;;
5465;SDS011;2755;50.728;7.108;2023-09-07T03:33:45;183.50;;;138.97;;
5465;SDS011;2755;50.728;7.108;2023-09-07T03:36:11;183.20;;;137.00;;
5465;SDS011;2755;50.728;7.108;2023-09-07T03:38:39;186.97;;;143.97;;
5465;SDS011;2755;50.728;7.108;2023-09-07T03:41:05;184.47;;;140.23;;
5465;SDS011;2755;50.728;7.108;2023-09-07T03:43:31;187.47;;;144.00;;
5465;SDS011;2755;50.728;7.108;2023-09-07T03:45:57;190.13;;;147.70;;
5465;SDS011;2755;50.728;7.108;2023-09-07T03:48:23;191.57;;;149.97;;
5465;SDS011;2755;50.728;7.108;2023-09-07T03:50:49;197.03;;;161.07;;
5465;SDS011;2755;50.728;7.108;2023-09-07T03:53:14;199.03;;;163.93;;
5465;SDS011;2755;50.728;7.108;2023-09-07T03:55:41;193.37;;;151.87;;
5465;SDS011;2755;50.728;7.108;2023-09-07T03:58:08;193.53;;;151.97;;
5465;SDS011;2755;50.728;7.108;2023-09-07T04:00:37;197.50;;;159.00;;
5465;SDS011;2755;50.728;7.108;2023-09-07T04:03:04;197.17;;;157.07;;
5465;SDS011;2755;50.728;7.108;2023-09-07T04:05:30;200.17;;;160.37;;
5465;SDS011;2755;50.728;7.108;2023-09-07T04:07:56;196.23;;;156.60;;
5465;SDS011;2755;50.728;7.108;2023-09-07T04:10:22;190.00;;;145.30;;
5465;SDS011;2755;50.728;7.108;2023-09-07T04:12:48;198.83;;;159.53;;
5465;SDS011;2755;50.728;7.108;2023-09-07T04:15:13;187.33;;;141.70;;
5465;SDS011;2755;50.728;7.108;2023-09-07T04:17:39;196.23;;;155.20;;
5465;SDS011;2755;50.728;7.108;2023-09-07T04:20:06;191.77;;;148.80;;
5465;SDS011;2755;50.728;7.108;2023-09-07T04:22:33;196.63;;;155.97;;
5465;SDS011;2755;50.728;7.108;2023-09-07T04:24:59;191.37;;;148.77;;
5465;SDS011;2755;50.728;7.108;2023-09-07T04:27:24;193.30;;;148.63;;
5465;SDS011;2755;50.728;7.108;2023-09-07T04:29:51;193.43;;;149.87;;
5465;SDS011;2755;50.728;7.108;2023-09-07T04:32:16;189.70;;;144.27;;
5465;SDS011;2755;50.728;7.108;2023-09-07T04:34:42;191.83;;;147.97;;
5465;SDS011;2755;50.728;7.108;2023-09-07T04:37:08;190.47;;;146.67;;
5465;SDS011;2755;50.728;7.108;2023-09-07T04:39:33;193.40;;;148.37;;
5465;SDS011;2755;50.728;7.108;2023-09-07T04:41:59;187.57;;;142.53;;
5465;SDS011;2755;50.728;7.108;2023-09-07T04:44:25;192.33;;;149.43;;
5465;SDS011;2755;50.728;7.108;2023-09-07T04:46:54;195.63;;;153.03;;
5465;SDS011;2755;50.728;7.108;2023-09-07T04:49:20;193.47;;;152.47;;
5465;SDS011;2755;50.728;7.108;2023-09-07T04:51:46;196.03;;;157.33;;
5465;SDS011;2755;50.728;7.108;2023-09-07T04:54:11;196.43;;;160.23;;
5465;SDS011;2755;50.728;7.108;2023-09-07T04:56:38;198.03;;;159.67;;
5465;SDS011;2755;50.728;7.108;2023-09-07T04:59:03;201.00;;;164.90;;
5465;SDS011;2755;50.728;7.108;2023-09-07T05:01:29;197.57;;;161.70;;
5465;SDS011;2755;50.728;7.108;2023-09-07T05:03:54;204.53;;;171.07;;
5465;SDS011;2755;50.728;7.108;2023-09-07T05:06:20;200.77;;;166.40;;
5465;SDS011;2755;50.728;7.108;2023-09-07T05:08:48;199.17;;;165.63;;
5465;SDS011;2755;50.728;7.108;2023-09-07T05:11:13;203.20;;;169.27;;
5465;SDS011;2755;50.728;7.108;2023-09-07T05:13:39;201.13;;;169.57;;
5465;SDS011;2755;50.728;7.108;2023-09-07T05:16:04;200.90;;;165.00;;
5465;SDS011;2755;50.728;7.108;2023-09-07T05:18:30;199.23;;;164.67;;
5465;SDS011;2755;50.728;7.108;2023-09-07T05:20:56;199.87;;;162.57;;
5465;SDS011;2755;50.728;7.108;2023-09-07T05:23:22;200.93;;;167.27;;
5465;SDS011;2755;50.728;7.108;2023-09-07T05:25:50;203.67;;;174.13;;
5465;SDS011;2755;50.728;7.108;2023-09-07T05:28:19;201.87;;;169.43;;
5465;SDS011;2755;50.728;7.108;2023-09-07T05:30:46;199.03;;;166.03;;
5465;SDS011;2755;50.728;7.108;2023-09-07T05:33:13;203.67;;;174.83;;
5465;SDS011;2755;50.728;7.108;2023-09-07T05:35:40;201.40;;;172.57;;
5465;SDS011;2755;50.728;7.108;2023-09-07T05:38:07;201.67;;;170.87;;
5465;SDS011;2755;50.728;7.108;2023-09-07T05:40:34;202.27;;;173.63;;
5465;SDS011;2755;50.728;7.108;2023-09-07T05:43:00;200.93;;;171.73;;
5465;SDS011;2755;50.728;7.108;2023-09-07T05:45:26;201.70;;;170.53;;
5465;SDS011;2755;50.728;7.108;2023-09-07T05:47:52;207.57;;;182.43;;
5465;SDS011;2755;50.728;7.108;2023-09-07T05:50:18;203.23;;;173.80;;
5465;SDS011;2755;50.728;7.108;2023-09-07T05:52:43;201.87;;;171.67;;
5465;SDS011;2755;50.728;7.108;2023-09-07T05:55:09;204.80;;;177.00;;
5465;SDS011;2755;50.728;7.108;2023-09-07T05:57:35;206.90;;;181.67;;
5465;SDS011;2755;50.728;7.108;2023-09-07T06:00:01;206.90;;;180.27;;
5465;SDS011;2755;50.728;7.108;2023-09-07T06:02:27;217.47;;;193.57;;
5465;SDS011;2755;50.728;7.108;2023-09-07T06:04:53;234.17;;;209.83;;
5465;SDS011;2755;50.728;7.108;2023-09-07T06:07:18;239.30;;;214.60;;
5465;SDS011;2755;50.728;7.108;2023-09-07T06:09:44;228.93;;;204.73;;
5465;SDS011;2755;50.728;7.108;2023-09-07T06:12:10;208.90;;;185.60;;
5465;SDS011;2755;50.728;7.108;2023-09-07T06:14:36;198.30;;;162.60;;
5465;SDS011;2755;50.728;7.108;2023-09-07T06:17:01;189.07;;;145.00;;
5465;SDS011;2755;50.728;7.108;2023-09-07T06:19:27;190.97;;;149.90;;
5465;SDS011;2755;50.728;7.108;2023-09-07T06:21:53;193.53;;;152.80;;
5465;SDS011;2755;50.728;7.108;2023-09-07T06:24:18;216.50;;;193.03;;
5465;SDS011;2755;50.728;7.108;2023-09-07T06:26:45;241.73;;;217.00;;
5465;SDS011;2755;50.728;7.108;2023-09-07T06:29:11;283.40;;;256.30;;
5465;SDS011;2755;50.728;7.108;2023-09-07T06:31:36;279.10;;;252.27;;
5465;SDS011;2755;50.728;7.108;2023-09-07T06:34:02;208.13;;;181.80;;
5465;SDS011;2755;50.728;7.108;2023-09-07T06:36:29;200.53;;;165.50;;
5465;SDS011;2755;50.728;7.108;2023-09-07T06:38:55;217.73;;;193.77;;
5465;SDS011;2755;50.728;7.108;2023-09-07T06:41:21;213.07;;;188.23;;
5465;SDS011;2755;50.728;7.108;2023-09-07T06:43:47;191.33;;;152.50;;
5465;SDS011;2755;50.728;7.108;2023-09-07T06:46:12;195.93;;;160.03;;
5465;SDS011;2755;50.728;7.108;2023-09-07T06:48:38;205.07;;;170.27;;
5465;SDS011;2755;50.728;7.108;2023-09-07T06:51:04;201.47;;;168.70;;
5465;SDS011;2755;50.728;7.108;2023-09-07T06:53:31;210.37;;;180.50;;
5465;SDS011;2755;50.728;7.108;2023-09-07T06:56:00;200.83;;;165.17;;
5465;SDS011;2755;50.728;7.108;2023-09-07T06:58:26;198.77;;;158.17;;
5465;SDS011;2755;50.728;7.108;2023-09-07T07:00:52;189.00;;;149.33;;
5465;SDS011;2755;50.728;7.108;2023-09-07T07:03:21;183.47;;;139.10;;
5465;SDS011;2755;50.728;7.108;2023-09-07T07:05:47;187.77;;;147.87;;
5465;SDS011;2755;50.728;7.108;2023-09-07T07:08:12;188.40;;;147.57;;
5465;SDS011;2755;50.728;7.108;2023-09-07T07:10:38;185.73;;;141.23;;
5465;SDS011;2755;50.728;7.108;2023-09-07T07:13:04;197.93;;;148.30;;
5465;SDS011;2755;50.728;7.108;2023-09-07T07:15:29;191.77;;;153.17;;
5465;SDS011;2755;50.728;7.108;2023-09-07T07:17:55;190.80;;;149.20;;
5465;SDS011;2755;50.728;7.108;2023-09-07T07:20:20;193.07;;;153.03;;
5465;SDS011;2755;50.728;7.108;2023-09-07T07:22:46;190.77;;;150.63;;
5465;SDS011;2755;50.728;7.108;2023-09-07T07:25:12;199.27;;;160.03;;
5465;SDS011;2755;50.728;7.108;2023-09-07T07:27:37;211.03;;;179.37;;
5465;SDS011;2755;50.728;7.108;2023-09-07T07:30:04;213.47;;;186.27;;
5465;SDS011;2755;50.728;7.108;2023-09-07T07:32:29;204.53;;;173.50;;
5465;SDS011;2755;50.728;7.108;2023-09-07T07:34:55;207.10;;;175.00;;
5465;SDS011;2755;50.728;7.108;2023-09-07T07:37:20;194.40;;;155.30;;
5465;SDS011;2755;50.728;7.108;2023-09-07T07:39:46;200.77;;;166.37;;
5465;SDS011;2755;50.728;7.108;2023-09-07T07:42:12;206.07;;;175.90;;
5465;SDS011;2755;50.728;7.108;2023-09-07T07:44:38;210.83;;;183.80;;
5465;SDS011;2755;50.728;7.108;2023-09-07T07:47:03;209.93;;;178.63;;
5465;SDS011;2755;50.728;7.108;2023-09-07T07:49:29;215.70;;;190.90;;
5465;SDS011;2755;50.728;7.108;2023-09-07T07:51:56;217.87;;;192.70;;
5465;SDS011;2755;50.728;7.108;2023-09-07T07:54:22;212.43;;;183.43;;
5465;SDS011;2755;50.728;7.108;2023-09-07T07:56:49;201.70;;;165.63;;
5465;SDS011;2755;50.728;7.108;2023-09-07T07:59:15;189.47;;;146.50;;
5465;SDS011;2755;50.728;7.108;2023-09-07T08:01:41;190.27;;;149.23;;
5465;SDS011;2755;50.728;7.108;2023-09-07T08:04:07;184.80;;;139.67;;
5465;SDS011;2755;50.728;7.108;2023-09-07T08:06:33;181.43;;;135.07;;
5465;SDS011;2755;50.728;7.108;2023-09-07T08:08:59;188.03;;;148.70;;
5465;SDS011;2755;50.728;7.108;2023-09-07T08:11:25;181.37;;;137.27;;
5465;SDS011;2755;50.728;7.108;2023-09-07T08:13:51;183.00;;;138.37;;
5465;SDS011;2755;50.728;7.108;2023-09-07T08:16:17;180.10;;;133.10;;
5465;SDS011;2755;50.728;7.108;2023-09-07T08:18:42;180.27;;;130.70;;
5465;SDS011;2755;50.728;7.108;2023-09-07T08:21:08;204.63;;;171.97;;
5465;SDS011;2755;50.728;7.108;2023-09-07T08:23:34;215.00;;;190.27;;
5465;SDS011;2755;50.728;7.108;2023-09-07T08:28:31;209.93;;;180.77;;
5465;SDS011;2755;50.728;7.108;2023-09-07T08:30:57;215.23;;;191.07;;
5465;SDS011;2755;50.728;7.108;2023-09-07T08:33:25;215.43;;;191.63;;
5465;SDS011;2755;50.728;7.108;2023-09-07T08:35:55;205.73;;;169.63;;
5465;SDS011;2755;50.728;7.108;2023-09-07T08:38:22;200.10;;;167.03;;
5465;SDS011;2755;50.728;7.108;2023-09-07T08:40:51;195.60;;;158.00;;
5465;SDS011;2755;50.728;7.108;2023-09-07T08:43:19;192.97;;;153.20;;
5465;SDS011;2755;50.728;7.108;2023-09-07T08:45:46;189.93;;;146.63;;
5465;SDS011;2755;50.728;7.108;2023-09-07T08:48:22;184.63;;;138.33;;
5465;SDS011;2755;50.728;7.108;2023-09-07T08:50:50;183.10;;;137.00;;
5465;SDS011;2755;50.728;7.108;2023-09-07T08:53:17;182.87;;;136.27;;
5465;SDS011;2755;50.728;7.108;2023-09-07T08:55:45;177.80;;;129.57;;
5465;SDS011;2755;50.728;7.108;2023-09-07T08:58:10;181.43;;;134.63;;
5465;SDS011;2755;50.728;7.108;2023-09-07T09:00:36;178.13;;;131.10;;
5465;SDS011;2755;50.728;7.108;2023-09-07T09:03:02;181.77;;;137.37;;
5465;SDS011;2755;50.728;7.108;2023-09-07T09:05:29;182.13;;;138.43;;
5465;SDS011;2755;50.728;7.108;2023-09-07T09:08:05;181.77;;;138.67;;
5465;SDS011;2755;50.728;7.108;2023-09-07T09:10:30;189.37;;;143.93;;
5465;SDS011;2755;50.728;7.108;2023-09-07T09:12:56;194.03;;;156.57;;
5465;SDS011;2755;50.728;7.108;2023-09-07T09:15:24;194.20;;;161.70;;
5465;SDS011;2755;50.728;7.108;2023-09-07T09:17:52;185.30;;;144.53;;
5465;SDS011;2755;50.728;7.108;2023-09-07T09:20:25;186.33;;;144.33;;
5465;SDS011;2755;50.728;7.108;2023-09-07T09:22:54;187.83;;;147.57;;
5465;SDS011;2755;50.728;7.108;2023-09-07T09:25:21;187.37;;;146.90;;
5465;SDS011;2755;50.728;7.108;2023-09-07T09:27:47;189.80;;;148.53;;
5465;SDS011;2755;50.728;7.108;2023-09-07T09:30:13;190.17;;;151.27;;
5465;SDS011;2755;50.728;7.108;2023-09-07T09:32:41;195.97;;;162.37;;
5465;SDS011;2755;50.728;7.108;2023-09-07T09:35:08;199.60;;;168.90;;
5465;SDS011;2755;50.728;7.108;2023-09-07T09:37:34;197.53;;;164.03;;
5465;SDS011;2755;50.728;7.108;2023-09-07T09:40:13;201.63;;;171.10;;
5465;SDS011;2755;50.728;7.108;2023-09-07T09:42:41;198.43;;;166.03;;
5465;SDS011;2755;50.728;7.108;2023-09-07T09:45:08;195.37;;;160.47;;
5465;SDS011;2755;50.728;7.108;2023-09-07T09:47:39;194.37;;;153.77;;
5465;SDS011;2755;50.728;7.108;2023-09-07T09:50:07;189.93;;;147.63;;
5465;SDS011;2755;50.728;7.108;2023-09-07T09:52:34;188.80;;;147.77;;
5465;SDS011;2755;50.728;7.108;2023-09-07T09:55:02;187.47;;;145.13;;
5465;SDS011;2755;50.728;7.108;2023-09-07T09:57:31;186.23;;;140.73;;
5465;SDS011;2755;50.728;7.108;2023-09-07T09:59:58;185.63;;;141.60;;
5465;SDS011;2755;50.728;7.108;2023-09-07T10:02:24;190.07;;;145.27;;
5465;SDS011;2755;50.728;7.108;2023-09-07T10:04:51;192.87;;;153.90;;
5465;SDS011;2755;50.728;7.108;2023-09-07T10:07:18;214.07;;;190.47;;
5465;SDS011;2755;50.728;7.108;2023-09-07T10:09:44;215.00;;;191.10;;
5465;SDS011;2755;50.728;7.108;2023-09-07T10:12:13;228.67;;;203.87;;
5465;SDS011;2755;50.728;7.108;2023-09-07T10:14:39;209.07;;;177.37;;
5465;SDS011;2755;50.728;7.108;2023-09-07T10:17:09;209.80;;;177.53;;
5465;SDS011;2755;50.728;7.108;2023-09-07T10:19:35;211.13;;;181.83;;
5465;SDS011;2755;50.728;7.108;2023-09-07T10:22:03;208.27;;;178.47;;
5465;SDS011;2755;50.728;7.108;2023-09-07T10:24:29;209.83;;;179.77;;
5465;SDS011;2755;50.728;7.108;2023-09-07T10:27:01;209.37;;;178.40;;
5465;SDS011;2755;50.728;7.108;2023-09-07T10:29:39;210.73;;;180.77;;
5465;SDS011;2755;50.728;7.108;2023-09-07T10:32:09;205.77;;;172.70;;
5465;SDS011;2755;50.728;7.108;2023-09-07T10:34:39;206.37;;;173.13;;
5465;SDS011;2755;50.728;7.108;2023-09-07T10:37:08;206.70;;;174.90;;
5465;SDS011;2755;50.728;7.108;2023-09-07T10:39:38;206.47;;;171.30;;
5465;SDS011;2755;50.728;7.108;2023-09-07T10:42:05;206.57;;;173.67;;
5465;SDS011;2755;50.728;7.108;2023-09-07T10:44:31;208.77;;;179.43;;
5465;SDS011;2755;50.728;7.108;2023-09-07T10:46:56;206.63;;;173.63;;
5465;SDS011;2755;50.728;7.108;2023-09-07T10:49:23;203.53;;;167.93;;
5465;SDS011;2755;50.728;7.108;2023-09-07T10:51:49;204.47;;;169.53;;
5465;SDS011;2755;50.728;7.108;2023-09-07T10:54:18;200.40;;;161.87;;
5465;SDS011;2755;50.728;7.108;2023-09-07T10:56:48;202.07;;;166.87;;
5465;SDS011;2755;50.728;7.108;2023-09-07T10:59:15;200.80;;;163.50;;
5465;SDS011;2755;50.728;7.108;2023-09-07T11:01:41;201.83;;;165.93;;
5465;SDS011;2755;50.728;7.108;2023-09-07T11:04:08;197.47;;;155.77;;
5465;SDS011;2755;50.728;7.108;2023-09-07T11:06:36;207.40;;;174.47;;
5465;SDS011;2755;50.728;7.108;2023-09-07T11:09:03;203.27;;;168.03;;
5465;SDS011;2755;50.728;7.108;2023-09-07T11:11:31;207.03;;;171.67;;
5465;SDS011;2755;50.728;7.108;2023-09-07T11:13:58;201.30;;;162.17;;
5465;SDS011;2755;50.728;7.108;2023-09-07T11:16:24;202.73;;;165.70;;
5465;SDS011;2755;50.728;7.108;2023-09-07T11:18:53;201.97;;;165.77;;
5465;SDS011;2755;50.728;7.108;2023-09-07T11:21:19;199.30;;;159.60;;
5465;SDS011;2755;50.728;7.108;2023-09-07T11:23:45;201.10;;;158.50;;
5465;SDS011;2755;50.728;7.108;2023-09-07T11:26:11;205.90;;;172.00;;
5465;SDS011;2755;50.728;7.108;2023-09-07T11:28:37;203.33;;;164.50;;
5465;SDS011;2755;50.728;7.108;2023-09-07T11:31:03;204.37;;;167.37;;
5465;SDS011;2755;50.728;7.108;2023-09-07T11:33:32;204.13;;;169.20;;
5465;SDS011;2755;50.728;7.108;2023-09-07T11:35:58;196.43;;;155.80;;
5465;SDS011;2755;50.728;7.108;2023-09-07T11:38:28;193.33;;;148.43;;
5465;SDS011;2755;50.728;7.108;2023-09-07T11:41:00;194.73;;;151.53;;
5465;SDS011;2755;50.728;7.108;2023-09-07T11:43:25;190.17;;;144.27;;
5465;SDS011;2755;50.728;7.108;2023-09-07T11:45:51;190.73;;;145.30;;
5465;SDS011;2755;50.728;7.108;2023-09-07T11:48:17;195.03;;;152.77;;
5465;SDS011;2755;50.728;7.108;2023-09-07T11:50:43;199.20;;;163.03;;
5465;SDS011;2755;50.728;7.108;2023-09-07T11:53:09;198.97;;;161.53;;
5465;SDS011;2755;50.728;7.108;2023-09-07T11:55:34;195.83;;;154.73;;
5465;SDS011;2755;50.728;7.108;2023-09-07T11:58:03;195.30;;;154.67;;
5465;SDS011;2755;50.728;7.108;2023-09-07T12:00:30;194.90;;;153.63;;
5465;SDS011;2755;50.728;7.108;2023-09-07T12:02:57;189.50;;;144.80;;
5465;SDS011;2755;50.728;7.108;2023-09-07T12:05:23;188.27;;;142.27;;
5465;SDS011;2755;50.728;7.108;2023-09-07T12:07:49;189.53;;;145.10;;
5465;SDS011;2755;50.728;7.108;2023-09-07T12:10:15;198.57;;;158.60;;
5465;SDS011;2755;50.728;7.108;2023-09-07T12:12:41;203.67;;;168.40;;
5465;SDS011;2755;50.728;7.108;2023-09-07T12:15:07;204.23;;;173.13;;
5465;SDS011;2755;50.728;7.108;2023-09-07T12:17:33;203.27;;;168.83;;
5465;SDS011;2755;50.728;7.108;2023-09-07T12:19:59;204.40;;;168.77;;
5465;SDS011;2755;50.728;7.108;2023-09-07T12:22:26;200.07;;;161.57;;
5465;SDS011;2755;50.728;7.108;2023-09-07T12:24:52;206.13;;;174.30;;
5465;SDS011;2755;50.728;7.108;2023-09-07T12:27:18;203.17;;;167.50;;
5465;SDS011;2755;50.728;7.108;2023-09-07T12:29:44;198.83;;;162.63;;
5465;SDS011;2755;50.728;7.108;2023-09-07T12:32:10;199.33;;;161.40;;
5465;SDS011;2755;50.728;7.108;2023-09-07T12:34:36;195.60;;;155.37;;
5465;SDS011;2755;50.728;7.108;2023-09-07T12:37:02;200.40;;;162.97;;
5465;SDS011;2755;50.728;7.108;2023-09-07T12:39:29;204.93;;;172.27;;
5465;SDS011;2755;50.728;7.108;2023-09-07T12:41:55;201.17;;;165.17;;
5465;SDS011;2755;50.728;7.108;2023-09-07T12:44:21;193.33;;;152.53;;
5465;SDS011;2755;50.728;7.108;2023-09-07T12:46:46;186.53;;;143.13;;
5465;SDS011;2755;50.728;7.108;2023-09-07T12:49:12;189.97;;;145.77;;
5465;SDS011;2755;50.728;7.108;2023-09-07T12:51:40;197.70;;;160.47;;
5465;SDS011;2755;50.728;7.108;2023-09-07T12:54:06;198.37;;;160.67;;
5465;SDS011;2755;50.728;7.108;2023-09-07T12:56:31;200.97;;;165.83;;
5465;SDS011;2755;50.728;7.108;2023-09-07T12:58:57;202.73;;;169.77;;
5465;SDS011;2755;50.728;7.108;2023-09-07T13:01:24;207.47;;;176.43;;
5465;SDS011;2755;50.728;7.108;2023-09-07T13:03:53;198.43;;;159.13;;
5465;SDS011;2755;50.728;7.108;2023-09-07T13:06:19;194.33;;;148.17;;
5465;SDS011;2755;50.728;7.108;2023-09-07T13:08:45;194.83;;;151.80;;
5465;SDS011;2755;50.728;7.108;2023-09-07T13:11:11;200.60;;;158.87;;
5465;SDS011;2755;50.728;7.108;2023-09-07T13:13:37;202.67;;;169.57;;
5465;SDS011;2755;50.728;7.108;2023-09-07T13:16:03;198.90;;;164.57;;
5465;SDS011;2755;50.728;7.108;2023-09-07T13:18:29;199.27;;;162.23;;
5465;SDS011;2755;50.728;7.108;2023-09-07T13:20:54;199.40;;;165.20;;
5465;SDS011;2755;50.728;7.108;2023-09-07T13:23:25;197.53;;;161.53;;
5465;SDS011;2755;50.728;7.108;2023-09-07T13:25:51;200.47;;;166.93;;
5465;SDS011;2755;50.728;7.108;2023-09-07T13:28:16;200.57;;;165.77;;
5465;SDS011;2755;50.728;7.108;2023-09-07T13:30:42;197.63;;;158.00;;
5465;SDS011;2755;50.728;7.108;2023-09-07T13:33:08;196.03;;;158.67;;
5465;SDS011;2755;50.728;7.108;2023-09-07T13:35:33;194.90;;;157.53;;
5465;SDS011;2755;50.728;7.108;2023-09-07T13:37:59;198.93;;;164.70;;
5465;SDS011;2755;50.728;7.108;2023-09-07T13:40:25;198.37;;;165.87;;
5465;SDS011;2755;50.728;7.108;2023-09-07T13:42:54;199.30;;;166.97;;
5465;SDS011;2755;50.728;7.108;2023-09-07T13:45:21;198.47;;;163.80;;
5465;SDS011;2755;50.728;7.108;2023-09-07T13:47:47;198.70;;;162.43;;
5465;SDS011;2755;50.728;7.108;2023-09-07T13:50:13;199.40;;;165.13;;
5465;SDS011;2755;50.728;7.108;2023-09-07T13:52:38;198.80;;;163.07;;
5465;SDS011;2755;50.728;7.108;2023-09-07T13:55:04;197.57;;;160.93;;
5465;SDS011;2755;50.728;7.108;2023-09-07T13:57:30;192.33;;;152.53;;
5465;SDS011;2755;50.728;7.108;2023-09-07T13:59:57;194.50;;;152.63;;
5465;SDS011;2755;50.728;7.108;2023-09-07T14:02:22;191.63;;;148.77;;
5465;SDS011;2755;50.728;7.108;2023-09-07T14:04:48;191.97;;;148.67;;
5465;SDS011;2755;50.728;7.108;2023-09-07T14:07:14;195.77;;;158.90;;
5465;SDS011;2755;50.728;7.108;2023-09-07T14:09:40;190.83;;;148.60;;
5465;SDS011;2755;50.728;7.108;2023-09-07T14:12:06;198.57;;;160.00;;
5465;SDS011;2755;50.728;7.108;2023-09-07T14:14:31;191.93;;;149.30;;
5465;SDS011;2755;50.728;7.108;2023-09-07T14:16:57;191.13;;;148.40;;
5465;SDS011;2755;50.728;7.108;2023-09-07T14:19:24;194.40;;;153.67;;
5465;SDS011;2755;50.728;7.108;2023-09-07T14:21:55;194.47;;;154.53;;